Merrill, IA (51038)

4:09 AM CDT on July 28, 2016 (GMT -0500)
Le Mars Municipal | | Change Station

Elev 1198 ft 42.78 °N, 96.19 °W | Updated 14 minutes ago

Clear
Clear
64 °F
Feels Like 64 °F
N
5
Wind Variable Wind from North

Today
High -- | Low -- °F
--% Chance of Precip.
Yesterday
High -- | Low -- °F
Precip. -- in
Pressure 30.02 in
Visibility 10.0 miles
Clouds Clear
Dew Point 63 °F
Humidity 94%
Rainfall 0.00 in
Snow Depth Not available.
6:13 AM 8:49 PM
Waning Crescent, 34% visible
METAR KLRJ 280855Z AUTO 35004KT 10SM CLR 18/17 A3002 RMK AO2
Pressure 30.02 in
Visibility 10.0 miles
Clouds Clear
Dew Point 63 °F
Humidity 94%
Rainfall 0.00 in
Snow Depth Not available.
6:13 AM 8:49 PM
Waning Crescent, 34% visible
METAR KLRJ 280855Z AUTO 35004KT 10SM CLR 18/17 A3002 RMK AO2

10-Day Weather Forecast

Almanac

Astronomy

Jul. 28, 2016 Rise Set
Actual Time
Civil Twilight
Nautical Twilight
Astronomical Twilight
Moon
Length of Visible Light
Length of Day
Tomorrow will be .
, % of the Moon is Illuminated

Today's Extremes

State Highs State Lows

Community

WunderPhotos

Upload Photos

1,928,070 photos uploaded!

WunderBlog® & News

Nearby

Air Quality

  Air Quality AQ Index Pollutant
Not available.

Snow Depth

Station Depth Elevation

Earthquake Activity

City Distance Mag. Time & Date
Minimum magnitude displayed is 2.5.

Coastal Water Temperatures

Place Temperature

Stations

Nearby Weather Stations

Station Location Temp. Windchill Dew Point Humidity Wind Precip. Elev Updated Type
                   

Watches & Warnings

There are currently no watches in effect.